Time;durP1;ratioP1;P1;durP2;ratioP2;P2;SDS_P1;SDS_P2;PMS_P1;PMS_P2;Temp;Humidity;BMP_temperature;BMP_pressure;BME280_temperature;BME280_humidity;BME280_pressure;Samples;Min_cycle;Max_cycle;Signal;HPM_P1;HPM_P2
2023/05/02 00:00:16;;;;;;;17.23;15.43;;;;;;;;;;5281502;28;20413;-74
2023/05/02 00:02:47;;;;;;;16.88;15.10;;;;;;;;;;5281413;28;20017;-74
2023/05/02 00:05:19;;;;;;;18.75;15.27;;;;;;;;;;5281400;28;20017;-74
2023/05/02 00:07:50;;;;;;;19.05;15.73;;;;;;;;;;5281497;28;20426;-74
2023/05/02 00:10:21;;;;;;;19.92;17.23;;;;;;;;;;5282471;28;20032;-74
2023/05/02 00:12:53;;;;;;;18.45;16.27;;;;;;;;;;5280776;28;20049;-74
2023/05/02 00:15:26;;;;;;;19.70;16.23;;;;;;;;;;5281248;28;20095;-74
2023/05/02 00:17:57;;;;;;;19.48;16.17;;;;;;;;;;5281395;28;20491;-74
2023/05/02 00:20:28;;;;;;;20.83;16.52;;;;;;;;;;5281135;28;20020;-74
2023/05/02 00:22:59;;;;;;;20.73;16.48;;;;;;;;;;5281289;28;20044;-74
2023/05/02 00:25:31;;;;;;;21.83;16.37;;;;;;;;;;5281745;28;20463;-74
2023/05/02 00:28:02;;;;;;;20.95;16.33;;;;;;;;;;5280747;28;20298;-74
2023/05/02 00:30:33;;;;;;;19.80;16.23;;;;;;;;;;5281410;28;20460;-74
2023/05/02 00:33:05;;;;;;;21.85;17.20;;;;;;;;;;5280638;28;20020;-75
2023/05/02 00:35:37;;;;;;;26.65;18.63;;;;;;;;;;5281476;28;20359;-74
2023/05/02 00:38:08;;;;;;;24.52;17.33;;;;;;;;;;5281688;28;20099;-74
2023/05/02 00:40:46;;;;;;;21.73;17.08;;;;;;;;;;5280111;28;20089;-74
2023/05/02 00:43:18;;;;;;;22.73;16.85;;;;;;;;;;5281566;28;20058;-74
2023/05/02 00:45:49;;;;;;;22.02;16.83;;;;;;;;;;5280745;28;20057;-74
2023/05/02 00:48:20;;;;;;;20.42;15.77;;;;;;;;;;5280912;28;20099;-74
2023/05/02 00:50:52;;;;;;;21.15;15.48;;;;;;;;;;5283312;28;20099;-74
2023/05/02 00:53:23;;;;;;;18.80;14.88;;;;;;;;;;5281787;28;20490;-74
2023/05/02 00:55:56;;;;;;;16.60;13.30;;;;;;;;;;5280055;28;20407;-74
2023/05/02 00:58:28;;;;;;;16.88;12.63;;;;;;;;;;5281832;28;20020;-74
2023/05/02 01:01:18;;;;;;;16.73;12.52;;;;;;;;;;5280866;28;20055;-73
2023/05/02 01:03:58;;;;;;;18.63;11.98;;;;;;;;;;5280948;28;20488;-73
2023/05/02 01:06:41;;;;;;;14.82;11.93;;;;;;;;;;5280993;28;20032;-74
2023/05/02 01:09:28;;;;;;;16.08;11.82;;;;;;;;;;5280796;28;20044;-73
2023/05/02 01:12:03;;;;;;;16.40;12.07;;;;;;;;;;5281052;28;20585;-74
2023/05/02 01:14:40;;;;;;;15.82;11.50;;;;;;;;;;5280958;28;20032;-74
2023/05/02 01:17:13;;;;;;;13.23;11.18;;;;;;;;;;5280596;28;20085;-74
2023/05/02 01:19:50;;;;;;;13.05;10.38;;;;;;;;;;5280823;28;20023;-74
2023/05/02 01:22:21;;;;;;;12.48;9.30;;;;;;;;;;5280526;28;20028;-74
2023/05/02 01:25:00;;;;;;;11.55;8.45;;;;;;;;;;5280620;28;20356;-74
2023/05/02 01:27:40;;;;;;;10.30;7.85;;;;;;;;;;5283138;28;20032;-74
2023/05/02 01:30:12;;;;;;;11.02;7.53;;;;;;;;;;5284067;28;20039;-74
2023/05/02 01:32:45;;;;;;;9.70;7.07;;;;;;;;;;5284264;28;20021;-74
2023/05/02 01:35:16;;;;;;;11.43;7.45;;;;;;;;;;5285076;28;20379;-75
2023/05/02 01:37:48;;;;;;;7.88;7.07;;;;;;;;;;5283435;28;20020;-74
2023/05/02 01:40:21;;;;;;;8.63;7.13;;;;;;;;;;5284841;28;20025;-74
2023/05/02 01:42:53;;;;;;;8.45;6.68;;;;;;;;;;5284332;28;20024;-74
2023/05/02 01:45:24;;;;;;;7.88;7.07;;;;;;;;;;5283988;28;20038;-74
2023/05/02 01:47:56;;;;;;;9.80;7.25;;;;;;;;;;5284001;28;20035;-74
2023/05/02 01:50:28;;;;;;;9.07;7.05;;;;;;;;;;5284018;28;20047;-75
2023/05/02 01:53:00;;;;;;;9.20;7.43;;;;;;;;;;5284305;28;20036;-74
2023/05/02 01:55:34;;;;;;;8.85;6.93;;;;;;;;;;5284126;28;20037;-75
2023/05/02 01:58:06;;;;;;;10.02;7.35;;;;;;;;;;5283541;28;20031;-75
2023/05/02 02:00:38;;;;;;;12.98;7.13;;;;;;;;;;5283852;28;20096;-74
2023/05/02 02:03:09;;;;;;;8.20;6.90;;;;;;;;;;5284210;28;20021;-75
2023/05/02 02:05:41;;;;;;;9.35;7.70;;;;;;;;;;5282963;28;20495;-75
2023/05/02 02:08:12;;;;;;;10.75;7.72;;;;;;;;;;5284402;28;20020;-75
2023/05/02 02:10:45;;;;;;;8.52;7.25;;;;;;;;;;5283948;28;20016;-75
2023/05/02 02:13:17;;;;;;;9.85;6.82;;;;;;;;;;5283496;28;20020;-74
2023/05/02 02:15:49;;;;;;;10.07;7.78;;;;;;;;;;5283694;28;20464;-75
2023/05/02 02:18:21;;;;;;;10.05;7.70;;;;;;;;;;5284415;28;20376;-74
2023/05/02 02:20:54;;;;;;;9.35;7.28;;;;;;;;;;5282687;28;20095;-75
2023/05/02 02:23:26;;;;;;;9.68;7.85;;;;;;;;;;5284058;28;20424;-74
2023/05/02 02:26:00;;;;;;;10.75;8.48;;;;;;;;;;5282777;28;20358;-75
2023/05/02 02:28:33;;;;;;;12.52;8.45;;;;;;;;;;5283595;28;20032;-75
2023/05/02 02:31:04;;;;;;;12.20;8.43;;;;;;;;;;5283631;28;20487;-74
2023/05/02 02:33:35;;;;;;;9.80;8.35;;;;;;;;;;5282729;28;20020;-75
2023/05/02 02:36:25;;;;;;;11.35;7.72;;;;;;;;;;5283455;28;20074;-74
2023/05/02 02:38:59;;;;;;;10.98;8.55;;;;;;;;;;5282666;28;20024;-74
2023/05/02 02:41:33;;;;;;;10.90;9.70;;;;;;;;;;5282816;28;20028;-74
2023/05/02 02:44:23;;;;;;;11.52;9.15;;;;;;;;;;5283314;28;20020;-74
2023/05/02 02:46:54;;;;;;;9.10;8.15;;;;;;;;;;5282208;28;20428;-74
2023/05/02 02:49:30;;;;;;;10.75;9.02;;;;;;;;;;5283464;28;20087;-74
2023/05/02 02:52:06;;;;;;;10.63;9.20;;;;;;;;;;5283322;28;20274;-74
2023/05/02 02:54:38;;;;;;;12.52;9.43;;;;;;;;;;5281960;28;20056;-74
2023/05/02 02:57:09;;;;;;;11.10;8.68;;;;;;;;;;5283615;28;20130;-74
2023/05/02 02:59:45;;;;;;;9.65;8.57;;;;;;;;;;5282659;28;20017;-74
2023/05/02 03:02:18;;;;;;;11.27;8.77;;;;;;;;;;5282424;28;20277;-74
2023/05/02 03:04:50;;;;;;;11.55;8.02;;;;;;;;;;5282507;28;20016;-73
2023/05/02 03:07:21;;;;;;;11.00;8.98;;;;;;;;;;5283016;28;20028;-74
2023/05/02 03:09:52;;;;;;;12.40;9.27;;;;;;;;;;5281941;28;20417;-73
2023/05/02 03:12:23;;;;;;;8.77;7.88;;;;;;;;;;5283059;28;20111;-73
2023/05/02 03:14:58;;;;;;;10.02;7.50;;;;;;;;;;5281335;28;20293;-74
2023/05/02 03:17:29;;;;;;;8.73;7.40;;;;;;;;;;5282440;28;20021;-73
2023/05/02 03:20:00;;;;;;;10.45;7.35;;;;;;;;;;5282313;28;20013;-73
2023/05/02 03:22:31;;;;;;;9.20;6.30;;;;;;;;;;5281946;28;20044;-74
2023/05/02 03:25:03;;;;;;;9.87;7.07;;;;;;;;;;5282611;28;20259;-74
2023/05/02 03:27:34;;;;;;;8.32;6.28;;;;;;;;;;5282350;28;20299;-73
2023/05/02 03:30:05;;;;;;;8.68;6.03;;;;;;;;;;5281254;28;20020;-73
2023/05/02 03:32:37;;;;;;;6.75;5.75;;;;;;;;;;5282419;28;20031;-73
2023/05/02 03:35:08;;;;;;;9.43;5.75;;;;;;;;;;5282519;28;20103;-73
2023/05/02 03:37:39;;;;;;;7.38;5.68;;;;;;;;;;5281262;28;20020;-73
2023/05/02 03:40:10;;;;;;;10.18;6.40;;;;;;;;;;5282597;28;20092;-73
2023/05/02 03:42:42;;;;;;;11.85;6.70;;;;;;;;;;5281565;28;20077;-74
2023/05/02 03:45:13;;;;;;;10.48;7.28;;;;;;;;;;5281783;28;20130;-74
2023/05/02 03:47:44;;;;;;;8.43;6.03;;;;;;;;;;5281706;28;20055;-73
2023/05/02 03:50:16;;;;;;;10.40;6.05;;;;;;;;;;5280739;28;20127;-73
2023/05/02 03:52:47;;;;;;;9.75;6.03;;;;;;;;;;5282595;28;20032;-74
2023/05/02 03:55:18;;;;;;;10.48;6.68;;;;;;;;;;5285135;28;20135;-73
2023/05/02 03:57:49;;;;;;;9.07;5.45;;;;;;;;;;5281137;28;20375;-73
2023/05/02 04:00:21;;;;;;;6.85;4.60;;;;;;;;;;5282530;28;20020;-74
2023/05/02 04:02:52;;;;;;;7.18;4.25;;;;;;;;;;5281587;28;20021;-74
2023/05/02 04:05:23;;;;;;;6.22;4.60;;;;;;;;;;5281227;28;20021;-74
2023/05/02 04:07:55;;;;;;;8.38;4.68;;;;;;;;;;5281036;28;20043;-73
2023/05/02 04:10:26;;;;;;;8.68;4.47;;;;;;;;;;5281801;28;20017;-73
2023/05/02 04:12:57;;;;;;;10.48;4.00;;;;;;;;;;5280290;28;20078;-73
2023/05/02 04:15:29;;;;;;;8.25;2.95;;;;;;;;;;5281685;28;20040;-73
2023/05/02 04:18:01;;;;;;;4.95;2.35;;;;;;;;;;5281359;28;20009;-74
2023/05/02 04:20:32;;;;;;;6.68;2.35;;;;;;;;;;5280711;28;20016;-74
2023/05/02 04:23:03;;;;;;;4.82;1.95;;;;;;;;;;5281497;28;20355;-73
2023/05/02 04:25:34;;;;;;;6.18;1.88;;;;;;;;;;5280567;28;20099;-74
2023/05/02 04:28:05;;;;;;;9.68;2.05;;;;;;;;;;5281284;28;20056;-73
2023/05/02 04:30:37;;;;;;;7.55;2.25;;;;;;;;;;5281137;28;20475;-74
2023/05/02 04:33:08;;;;;;;10.70;2.20;;;;;;;;;;5280955;28;20418;-73
2023/05/02 04:35:40;;;;;;;6.60;1.63;;;;;;;;;;5280944;28;20016;-74
2023/05/02 04:38:11;;;;;;;7.03;2.13;;;;;;;;;;5281775;28;20016;-73
2023/05/02 04:40:43;;;;;;;4.60;0.98;;;;;;;;;;5280289;28;20082;-74
2023/05/02 04:43:14;;;;;;;4.45;0.75;;;;;;;;;;5281605;28;20059;-74
2023/05/02 04:45:45;;;;;;;3.20;0.50;;;;;;;;;;5281036;28;20012;-74
2023/05/02 04:48:16;;;;;;;4.90;0.50;;;;;;;;;;5280718;28;20390;-75
2023/05/02 04:50:48;;;;;;;2.55;0.40;;;;;;;;;;5281048;28;20694;-75
2023/05/02 04:53:22;;;;;;;2.78;0.50;;;;;;;;;;5280759;28;20020;-75
2023/05/02 04:55:53;;;;;;;3.35;0.40;;;;;;;;;;5280634;28;20132;-75
2023/05/02 04:58:25;;;;;;;2.97;0.40;;;;;;;;;;5281612;28;20527;-75
2023/05/02 05:00:56;;;;;;;3.75;0.68;;;;;;;;;;5280097;28;20424;-75
2023/05/02 05:03:32;;;;;;;3.15;0.40;;;;;;;;;;5285515;28;20028;-74
2023/05/02 05:06:03;;;;;;;2.38;0.40;;;;;;;;;;5285022;28;20588;-75
2023/05/02 05:08:34;;;;;;;3.22;0.40;;;;;;;;;;5284640;28;20107;-74
2023/05/02 05:11:05;;;;;;;4.43;0.40;;;;;;;;;;5285287;28;20063;-74
2023/05/02 05:13:37;;;;;;;4.35;0.75;;;;;;;;;;5285089;28;20037;-74
2023/05/02 05:16:08;;;;;;;4.35;0.50;;;;;;;;;;5284255;28;20062;-74
2023/05/02 05:18:39;;;;;;;4.50;0.52;;;;;;;;;;5284125;28;20528;-75
2023/05/02 05:21:10;;;;;;;2.72;0.40;;;;;;;;;;5285365;28;20028;-74
2023/05/02 05:23:44;;;;;;;4.05;0.30;;;;;;;;;;5283525;28;20008;-74
2023/05/02 05:26:16;;;;;;;3.70;0.50;;;;;;;;;;5284979;28;20048;-74
2023/05/02 05:28:47;;;;;;;4.82;0.50;;;;;;;;;;5283707;28;20440;-74
2023/05/02 05:31:18;;;;;;;4.10;0.52;;;;;;;;;;5285339;28;20091;-74
2023/05/02 05:33:49;;;;;;;5.05;0.65;;;;;;;;;;5284492;28;20052;-74
2023/05/02 05:36:20;;;;;;;3.10;0.40;;;;;;;;;;5284080;28;20016;-74
2023/05/02 05:38:52;;;;;;;4.28;0.47;;;;;;;;;;5284347;28;20039;-74
2023/05/02 05:41:23;;;;;;;3.10;0.32;;;;;;;;;;5284670;28;20020;-74
2023/05/02 05:43:55;;;;;;;3.60;0.40;;;;;;;;;;5283477;28;20433;-74
2023/05/02 05:46:26;;;;;;;3.05;0.38;;;;;;;;;;5284882;28;20008;-74
2023/05/02 05:48:57;;;;;;;3.60;0.50;;;;;;;;;;5283994;28;20055;-74
2023/05/02 05:51:28;;;;;;;2.55;0.40;;;;;;;;;;5283881;28;20025;-74
2023/05/02 05:53:59;;;;;;;3.58;0.40;;;;;;;;;;5283568;28;20020;-74
2023/05/02 05:56:31;;;;;;;2.67;0.47;;;;;;;;;;5283989;28;20021;-75
2023/05/02 05:59:02;;;;;;;3.80;0.40;;;;;;;;;;5283965;28;20439;-74
2023/05/02 06:01:34;;;;;;;3.78;0.50;;;;;;;;;;5284259;28;20029;-74
2023/05/02 06:04:06;;;;;;;3.78;0.50;;;;;;;;;;5283335;28;20440;-77
2023/05/02 06:06:37;;;;;;;4.18;0.40;;;;;;;;;;5283685;28;20021;-76
2023/05/02 06:09:08;;;;;;;2.35;0.40;;;;;;;;;;5284341;28;20016;-76
2023/05/02 06:11:40;;;;;;;2.60;0.40;;;;;;;;;;5283019;28;20146;-76
2023/05/02 06:14:11;;;;;;;6.50;0.50;;;;;;;;;;5283240;28;20021;-76
2023/05/02 06:16:42;;;;;;;1.98;0.30;;;;;;;;;;5283451;28;20276;-76
2023/05/02 06:19:14;;;;;;;3.10;0.40;;;;;;;;;;5283530;28;20098;-76
2023/05/02 06:21:45;;;;;;;3.60;0.60;;;;;;;;;;5283335;28;20438;-76
2023/05/02 06:24:16;;;;;;;5.03;0.50;;;;;;;;;;5284134;28;20474;-75
2023/05/02 06:26:47;;;;;;;3.13;0.68;;;;;;;;;;5282703;28;20024;-75
2023/05/02 06:29:18;;;;;;;3.08;0.50;;;;;;;;;;5284046;28;20016;-75
2023/05/02 06:31:53;;;;;;;3.20;0.30;;;;;;;;;;5282798;28;20027;-75
2023/05/02 06:34:25;;;;;;;2.85;0.40;;;;;;;;;;5283731;28;20024;-75
2023/05/02 06:36:56;;;;;;;3.47;0.40;;;;;;;;;;5283239;28;20455;-75
2023/05/02 06:39:27;;;;;;;2.00;0.40;;;;;;;;;;5283044;28;20040;-76
2023/05/02 06:41:58;;;;;;;2.67;0.40;;;;;;;;;;5282879;28;20134;-75
2023/05/02 06:44:29;;;;;;;5.05;0.52;;;;;;;;;;5283557;28;20340;-75
2023/05/02 06:47:03;;;;;;;7.97;0.52;;;;;;;;;;5282458;28;20115;-76
2023/05/02 06:49:34;;;;;;;3.15;0.50;;;;;;;;;;5283242;28;20044;-76
2023/05/02 06:52:05;;;;;;;2.85;0.90;;;;;;;;;;5283120;28;20071;-77
2023/05/02 06:54:37;;;;;;;4.35;0.40;;;;;;;;;;5282220;28;20045;-75
2023/05/02 06:57:09;;;;;;;4.55;0.60;;;;;;;;;;5290637;28;20017;-74
2023/05/02 06:59:41;;;;;;;5.45;0.60;;;;;;;;;;5282807;28;20058;-76
2023/05/02 07:02:13;;;;;;;7.05;0.60;;;;;;;;;;5282465;28;20008;-74
2023/05/02 07:04:44;;;;;;;6.73;1.10;;;;;;;;;;5282641;28;20020;-76
2023/05/02 07:07:17;;;;;;;5.10;0.75;;;;;;;;;;5282514;28;20306;-75
2023/05/02 07:09:48;;;;;;;4.32;0.60;;;;;;;;;;5282670;28;20095;-76
2023/05/02 07:12:20;;;;;;;3.10;0.60;;;;;;;;;;5283214;28;20108;-76
2023/05/02 07:14:51;;;;;;;3.83;0.70;;;;;;;;;;5281554;28;20035;-75
2023/05/02 07:17:23;;;;;;;8.13;0.70;;;;;;;;;;5282977;28;20345;-74
2023/05/02 07:19:55;;;;;;;4.00;0.40;;;;;;;;;;5278791;28;20017;-75
2023/05/02 07:22:26;;;;;;;5.35;1.00;;;;;;;;;;5281203;28;20017;-74
2023/05/02 07:24:58;;;;;;;5.45;0.90;;;;;;;;;;5281660;28;20475;-73
2023/05/02 07:27:29;;;;;;;3.85;0.60;;;;;;;;;;5281735;28;20025;-74
2023/05/02 07:30:00;;;;;;;4.97;1.15;;;;;;;;;;5280761;28;20050;-73
2023/05/02 07:32:32;;;;;;;5.45;0.88;;;;;;;;;;5279564;28;20008;-72
2023/05/02 07:35:03;;;;;;;6.60;0.70;;;;;;;;;;5280559;28;20096;-72
2023/05/02 07:37:35;;;;;;;8.40;0.77;;;;;;;;;;5282080;28;20031;-72
2023/05/02 07:40:06;;;;;;;5.07;0.68;;;;;;;;;;5281934;28;20055;-73
2023/05/02 07:42:39;;;;;;;3.53;0.70;;;;;;;;;;5281042;28;20020;-73
2023/05/02 07:45:11;;;;;;;5.65;0.70;;;;;;;;;;5282208;28;20016;-74
2023/05/02 07:47:42;;;;;;;4.70;0.70;;;;;;;;;;5281512;28;20372;-72
2023/05/02 07:50:13;;;;;;;4.32;0.88;;;;;;;;;;5281600;28;20501;-73
2023/05/02 07:52:45;;;;;;;8.80;1.17;;;;;;;;;;5281039;28;20039;-73
2023/05/02 07:55:16;;;;;;;4.85;0.65;;;;;;;;;;5281898;28;20058;-75
2023/05/02 07:57:47;;;;;;;5.68;0.70;;;;;;;;;;5280785;28;20379;-73
2023/05/02 08:00:18;;;;;;;3.70;0.80;;;;;;;;;;5282040;28;20100;-73
2023/05/02 08:02:49;;;;;;;7.32;0.93;;;;;;;;;;5281448;28;20527;-74
2023/05/02 08:05:21;;;;;;;6.55;1.00;;;;;;;;;;5281469;28;20017;-73
2023/05/02 08:07:52;;;;;;;6.03;0.93;;;;;;;;;;5281043;28;20059;-73
2023/05/02 08:10:23;;;;;;;8.23;1.23;;;;;;;;;;5281359;28;20419;-72
2023/05/02 08:12:54;;;;;;;8.77;1.08;;;;;;;;;;5281443;28;20029;-73
2023/05/02 08:15:26;;;;;;;6.30;0.85;;;;;;;;;;5281922;28;20020;-73
2023/05/02 08:17:58;;;;;;;6.73;1.20;;;;;;;;;;5280712;28;20035;-74
2023/05/02 08:20:29;;;;;;;7.07;0.80;;;;;;;;;;5281615;28;20270;-73
2023/05/02 08:23:01;;;;;;;4.65;1.17;;;;;;;;;;5281632;28;20020;-73
2023/05/02 08:25:32;;;;;;;5.05;0.85;;;;;;;;;;5280799;28;20349;-73
2023/05/02 08:28:03;;;;;;;6.03;0.60;;;;;;;;;;5281129;28;20850;-73
2023/05/02 08:30:34;;;;;;;6.85;0.88;;;;;;;;;;5281358;28;20486;-73
2023/05/02 08:33:06;;;;;;;4.95;0.50;;;;;;;;;;5280873;28;20017;-73
2023/05/02 08:35:37;;;;;;;5.45;0.90;;;;;;;;;;5281364;28;20052;-74
2023/05/02 08:38:08;;;;;;;3.53;0.60;;;;;;;;;;5285381;28;20158;-74
2023/05/02 08:40:39;;;;;;;7.13;0.90;;;;;;;;;;5284551;28;20464;-71
2023/05/02 08:43:11;;;;;;;3.50;0.75;;;;;;;;;;5286152;28;20020;-74
2023/05/02 08:45:43;;;;;;;7.15;0.70;;;;;;;;;;5284353;28;20482;-76
2023/05/02 08:48:16;;;;;;;4.40;0.60;;;;;;;;;;5285956;28;20485;-71
2023/05/02 08:50:48;;;;;;;5.20;0.50;;;;;;;;;;5285079;28;20024;-70
2023/05/02 08:53:20;;;;;;;6.95;0.90;;;;;;;;;;5285152;28;20162;-77
2023/05/02 08:55:51;;;;;;;5.57;0.60;;;;;;;;;;5284799;28;20458;-77
2023/05/02 08:58:22;;;;;;;2.58;0.47;;;;;;;;;;5284594;28;20013;-77
2023/05/02 09:00:54;;;;;;;4.83;0.80;;;;;;;;;;5284010;28;20482;-77
2023/05/02 09:03:30;;;;;;;3.08;0.60;;;;;;;;;;5285518;28;20618;-76
2023/05/02 09:06:01;;;;;;;8.40;0.60;;;;;;;;;;5285405;28;20019;-75
2023/05/02 09:08:33;;;;;;;7.78;0.60;;;;;;;;;;5284558;28;20028;-76
2023/05/02 09:11:05;;;;;;;3.80;0.80;;;;;;;;;;5283231;28;20309;-77
2023/05/02 09:13:40;;;;;;;3.03;0.60;;;;;;;;;;5282831;28;20486;-76
2023/05/02 09:16:12;;;;;;;7.55;0.75;;;;;;;;;;5283092;28;20052;-75
2023/05/02 09:18:48;;;;;;;5.05;0.88;;;;;;;;;;5282667;28;20210;-76
2023/05/02 09:21:20;;;;;;;3.50;0.52;;;;;;;;;;5282002;28;20024;-76
2023/05/02 09:23:54;;;;;;;3.92;0.70;;;;;;;;;;5282400;28;20027;-76
2023/05/02 09:26:32;;;;;;;4.50;0.52;;;;;;;;;;5284502;28;20048;-76
2023/05/02 09:29:04;;;;;;;3.50;0.57;;;;;;;;;;5284160;28;20029;-76
2023/05/02 09:31:40;;;;;;;5.78;0.50;;;;;;;;;;5284815;28;20093;-76
2023/05/02 09:34:13;;;;;;;2.80;0.55;;;;;;;;;;5285202;28;20068;-76
2023/05/02 09:36:45;;;;;;;5.22;0.60;;;;;;;;;;5283384;28;20021;-76
2023/05/02 09:39:17;;;;;;;6.45;0.60;;;;;;;;;;5285144;28;20471;-76
2023/05/02 09:41:49;;;;;;;6.50;0.63;;;;;;;;;;5283639;28;20100;-76
2023/05/02 09:44:21;;;;;;;5.82;0.68;;;;;;;;;;5285091;28;20099;-75
2023/05/02 09:46:53;;;;;;;3.92;0.60;;;;;;;;;;5284142;28;20028;-76
2023/05/02 09:49:40;;;;;;;2.70;0.50;;;;;;;;;;5284135;28;20040;-76
2023/05/02 09:52:13;;;;;;;3.80;0.40;;;;;;;;;;5284636;28;20020;-76
2023/05/02 09:54:52;;;;;;;2.30;0.50;;;;;;;;;;5283938;28;20060;-77
2023/05/02 09:57:23;;;;;;;;;;;;;;;;;;5284446;28;20017;-77
2023/05/02 09:59:55;;;;;;;4.20;0.60;;;;;;;;;;5284816;28;19915;-76
2023/05/02 10:02:29;;;;;;;2.90;0.50;;;;;;;;;;5290352;28;20021;-77
2023/05/02 10:05:00;;;;;;;4.10;0.85;;;;;;;;;;5283984;28;20023;-76
2023/05/02 10:07:32;;;;;;;6.53;0.55;;;;;;;;;;5283860;28;20454;-75
2023/05/02 10:10:04;;;;;;;3.80;0.60;;;;;;;;;;5283060;28;20013;-75
2023/05/02 10:12:36;;;;;;;3.20;0.52;;;;;;;;;;5284450;28;20550;-76
2023/05/02 10:15:08;;;;;;;5.03;0.70;;;;;;;;;;5284163;28;20021;-75
2023/05/02 10:17:42;;;;;;;4.22;0.70;;;;;;;;;;5283193;28;20047;-76
2023/05/02 10:20:17;;;;;;;4.38;0.60;;;;;;;;;;5284253;28;20043;-76
2023/05/02 10:22:49;;;;;;;5.05;0.50;;;;;;;;;;5283252;28;20020;-75
2023/05/02 10:25:20;;;;;;;4.28;0.70;;;;;;;;;;5283517;28;20467;-76
2023/05/02 10:27:52;;;;;;;3.67;0.63;;;;;;;;;;5282983;28;20033;-76
2023/05/02 10:30:23;;;;;;;5.40;1.10;;;;;;;;;;5283434;28;20294;-76
2023/05/02 10:32:58;;;;;;;5.53;1.00;;;;;;;;;;5280815;28;20404;-76
2023/05/02 10:35:29;;;;;;;5.75;0.63;;;;;;;;;;5282634;28;20012;-75
2023/05/02 10:38:01;;;;;;;5.50;0.77;;;;;;;;;;5282634;28;20456;-75
2023/05/02 10:40:32;;;;;;;6.30;0.80;;;;;;;;;;5281185;28;20070;-75
2023/05/02 10:43:04;;;;;;;4.32;0.70;;;;;;;;;;5280738;28;20098;-76
2023/05/02 10:45:36;;;;;;;2.88;0.50;;;;;;;;;;5280187;28;20351;-75
2023/05/02 10:48:14;;;;;;;2.35;0.60;;;;;;;;;;5280912;28;20032;-76
2023/05/02 10:50:50;;;;;;;3.08;0.60;;;;;;;;;;5280684;28;20378;-75
2023/05/02 10:53:25;;;;;;;5.35;0.70;;;;;;;;;;5280383;28;20044;-76
2023/05/02 10:56:15;;;;;;;6.72;0.73;;;;;;;;;;5282606;28;20133;-75
2023/05/02 10:58:48;;;;;;;4.70;0.75;;;;;;;;;;5282604;28;20043;-75
2023/05/02 11:01:28;;;;;;;4.05;0.60;;;;;;;;;;5282479;28;20024;-76
2023/05/02 11:04:00;;;;;;;2.78;0.60;;;;;;;;;;5282573;28;20070;-75
2023/05/02 11:06:33;;;;;;;5.97;0.60;;;;;;;;;;5281978;28;20448;-76
2023/05/02 11:09:17;;;;;;;2.97;0.55;;;;;;;;;;5282980;28;20028;-75
2023/05/02 11:11:51;;;;;;;3.45;0.65;;;;;;;;;;5282511;28;20329;-74
2023/05/02 11:14:25;;;;;;;5.10;0.70;;;;;;;;;;5282388;28;20467;-74
2023/05/02 11:16:56;;;;;;;2.92;0.70;;;;;;;;;;5281973;28;20593;-74
2023/05/02 11:19:28;;;;;;;3.92;0.60;;;;;;;;;;5282979;28;20024;-73
2023/05/02 11:22:18;;;;;;;2.97;0.55;;;;;;;;;;5281355;28;20298;-75
2023/05/02 11:24:49;;;;;;;3.55;0.40;;;;;;;;;;5282081;28;20028;-73
2023/05/02 11:27:30;;;;;;;3.33;0.60;;;;;;;;;;5281799;28;20044;-73
2023/05/02 11:30:03;;;;;;;3.70;0.70;;;;;;;;;;5282421;28;20021;-72
2023/05/02 11:32:52;;;;;;;3.55;0.50;;;;;;;;;;5282380;28;20055;-74
2023/05/02 11:35:29;;;;;;;4.07;0.60;;;;;;;;;;5278112;28;20063;-73
2023/05/02 11:38:03;;;;;;;3.97;0.57;;;;;;;;;;5281765;28;20096;-74
2023/05/02 11:40:34;;;;;;;4.25;0.93;;;;;;;;;;5276826;28;20388;-75
2023/05/02 11:43:13;;;;;;;2.28;0.68;;;;;;;;;;5275494;28;20070;-76
2023/05/02 11:45:44;;;;;;;3.20;0.50;;;;;;;;;;5280819;28;20351;-73
2023/05/02 11:48:16;;;;;;;3.95;0.52;;;;;;;;;;5280681;28;20112;-73
2023/05/02 11:50:47;;;;;;;4.95;0.80;;;;;;;;;;5281674;28;20058;-74
2023/05/02 11:53:26;;;;;;;4.30;0.93;;;;;;;;;;5281181;28;20024;-73
2023/05/02 11:55:58;;;;;;;3.75;0.50;;;;;;;;;;5280485;28;20044;-74
2023/05/02 11:58:31;;;;;;;2.80;0.60;;;;;;;;;;5281912;28;20020;-74
2023/05/02 12:01:14;;;;;;;3.10;0.60;;;;;;;;;;5281901;28;20013;-74
2023/05/02 12:03:47;;;;;;;4.40;0.60;;;;;;;;;;5280912;28;20074;-74
2023/05/02 12:06:18;;;;;;;2.67;0.68;;;;;;;;;;5282195;28;20016;-74
2023/05/02 12:08:54;;;;;;;4.47;0.50;;;;;;;;;;5281194;28;20372;-74
2023/05/02 12:11:26;;;;;;;4.43;0.73;;;;;;;;;;5279120;28;20099;-74
2023/05/02 12:13:57;;;;;;;2.80;0.50;;;;;;;;;;5281130;28;20070;-75
2023/05/02 12:16:28;;;;;;;2.83;0.60;;;;;;;;;;5281442;28;20455;-74
2023/05/02 12:19:00;;;;;;;4.43;0.70;;;;;;;;;;5281310;28;20060;-75
2023/05/02 12:21:32;;;;;;;2.70;0.70;;;;;;;;;;5281607;28;20490;-74
2023/05/02 12:24:03;;;;;;;3.10;0.70;;;;;;;;;;5280981;28;20120;-74
2023/05/02 12:26:34;;;;;;;3.88;0.70;;;;;;;;;;5281059;28;20175;-74
2023/05/02 12:29:07;;;;;;;5.07;0.90;;;;;;;;;;5281633;28;20471;-77
2023/05/02 12:31:38;;;;;;;2.53;0.70;;;;;;;;;;5280430;28;20353;-75
2023/05/02 12:34:10;;;;;;;2.88;0.70;;;;;;;;;;5281880;28;20074;-74
2023/05/02 12:36:44;;;;;;;2.85;0.60;;;;;;;;;;5281463;28;20017;-75
2023/05/02 12:39:15;;;;;;;5.85;0.70;;;;;;;;;;5280756;28;20019;-74
2023/05/02 12:41:46;;;;;;;3.45;0.60;;;;;;;;;;5281164;28;20471;-74
2023/05/02 12:44:34;;;;;;;4.35;0.60;;;;;;;;;;5281669;28;20270;-74
2023/05/02 12:47:06;;;;;;;3.13;0.55;;;;;;;;;;5279985;28;20075;-74
2023/05/02 12:49:47;;;;;;;4.75;0.60;;;;;;;;;;5281158;28;20036;-74
2023/05/02 12:52:41;;;;;;;5.93;0.70;;;;;;;;;;5280976;28;20387;-74
2023/05/02 12:55:16;;;;;;;4.53;0.70;;;;;;;;;;5281196;28;20048;-74
2023/05/02 12:57:48;;;;;;;3.80;0.70;;;;;;;;;;5280920;28;20036;-74
2023/05/02 13:00:19;;;;;;;3.10;0.80;;;;;;;;;;5280653;28;20079;-74
2023/05/02 13:02:50;;;;;;;5.05;0.98;;;;;;;;;;5280999;28;20021;-74
2023/05/02 13:05:21;;;;;;;3.77;0.70;;;;;;;;;;5281424;28;20052;-74
2023/05/02 13:07:55;;;;;;;4.80;0.60;;;;;;;;;;5280188;28;20290;-74
2023/05/02 13:10:26;;;;;;;1.98;0.52;;;;;;;;;;5281500;28;20335;-75
2023/05/02 13:12:58;;;;;;;3.45;0.60;;;;;;;;;;5280029;28;20031;-74
2023/05/02 13:15:29;;;;;;;3.07;0.50;;;;;;;;;;5277459;28;20023;-74
2023/05/02 13:18:00;;;;;;;5.03;0.85;;;;;;;;;;5281731;28;20266;-74
2023/05/02 13:20:32;;;;;;;2.40;0.50;;;;;;;;;;5280193;28;20058;-76
2023/05/02 13:23:03;;;;;;;2.47;0.50;;;;;;;;;;5282598;28;20274;-74
2023/05/02 13:25:35;;;;;;;3.53;0.65;;;;;;;;;;5283802;28;20259;-75
2023/05/02 13:28:06;;;;;;;2.13;0.60;;;;;;;;;;5281988;28;20025;-72
2023/05/02 13:30:37;;;;;;;4.25;0.57;;;;;;;;;;5283159;28;20023;-73
2023/05/02 13:33:08;;;;;;;3.90;0.50;;;;;;;;;;5284345;28;20027;-73
2023/05/02 13:35:39;;;;;;;1.77;0.50;;;;;;;;;;5283651;28;20459;-72
2023/05/02 13:38:11;;;;;;;2.78;0.60;;;;;;;;;;5284863;28;20017;-72
2023/05/02 13:40:42;;;;;;;4.63;0.70;;;;;;;;;;5283790;28;20028;-72
2023/05/02 13:43:13;;;;;;;4.47;0.70;;;;;;;;;;5284319;28;20321;-76
2023/05/02 13:45:47;;;;;;;3.15;0.50;;;;;;;;;;5283763;28;20028;-75
2023/05/02 13:48:18;;;;;;;6.68;0.82;;;;;;;;;;5284003;28;20446;-75
2023/05/02 13:50:50;;;;;;;1.85;0.50;;;;;;;;;;5284030;28;20142;-75
2023/05/02 13:53:21;;;;;;;4.68;0.77;;;;;;;;;;5283445;28;20020;-75
2023/05/02 13:55:52;;;;;;;3.57;0.70;;;;;;;;;;5280885;28;20040;-76
2023/05/02 13:58:23;;;;;;;3.22;0.70;;;;;;;;;;5282417;28;20763;-75
2023/05/02 14:00:55;;;;;;;4.28;0.77;;;;;;;;;;5281710;28;20066;-75
2023/05/02 14:03:26;;;;;;;4.68;0.63;;;;;;;;;;5281429;28;20048;-75
2023/05/02 14:05:58;;;;;;;2.80;0.65;;;;;;;;;;5281587;28;20105;-75
2023/05/02 14:08:29;;;;;;;2.67;0.50;;;;;;;;;;5283115;28;20421;-75
2023/05/02 14:11:00;;;;;;;4.32;0.65;;;;;;;;;;5283051;28;20266;-75
2023/05/02 14:13:31;;;;;;;3.65;0.70;;;;;;;;;;5283969;28;20028;-75
2023/05/02 14:16:03;;;;;;;3.63;0.60;;;;;;;;;;5283227;28;20410;-75
2023/05/02 14:18:35;;;;;;;4.35;0.77;;;;;;;;;;5284132;28;20040;-75
2023/05/02 14:21:07;;;;;;;2.95;0.43;;;;;;;;;;5283903;28;20028;-75
2023/05/02 14:23:38;;;;;;;3.40;0.70;;;;;;;;;;5282640;28;20020;-75
2023/05/02 14:26:09;;;;;;;3.97;0.60;;;;;;;;;;5284109;28;20024;-75
2023/05/02 14:28:40;;;;;;;2.63;0.60;;;;;;;;;;5283169;28;20400;-76
2023/05/02 14:31:12;;;;;;;4.13;0.70;;;;;;;;;;5283102;28;20259;-75
2023/05/02 14:33:43;;;;;;;4.65;0.80;;;;;;;;;;5282650;28;20467;-76
2023/05/02 14:36:15;;;;;;;2.38;0.70;;;;;;;;;;5283654;28;20450;-75
2023/05/02 14:38:46;;;;;;;4.78;0.90;;;;;;;;;;5282365;28;20012;-76
2023/05/02 14:41:17;;;;;;;2.72;0.60;;;;;;;;;;5283578;28;20030;-75
2023/05/02 14:43:50;;;;;;;6.22;0.80;;;;;;;;;;5283150;28;20075;-76
2023/05/02 14:46:21;;;;;;;3.20;1.02;;;;;;;;;;5282934;28;20020;-75
2023/05/02 14:48:52;;;;;;;5.38;0.80;;;;;;;;;;5282743;28;20471;-76
2023/05/02 14:51:23;;;;;;;3.80;1.00;;;;;;;;;;5282810;28;20571;-75
2023/05/02 14:53:54;;;;;;;3.33;0.80;;;;;;;;;;5282690;28;20020;-75
2023/05/02 14:56:26;;;;;;;3.73;0.70;;;;;;;;;;5283234;28;20277;-75
2023/05/02 14:58:57;;;;;;;5.88;1.10;;;;;;;;;;5281895;28;20763;-75
2023/05/02 15:01:29;;;;;;;3.55;0.70;;;;;;;;;;5283385;28;20111;-75
2023/05/02 15:04:00;;;;;;;5.25;0.85;;;;;;;;;;5282913;28;20016;-74
2023/05/02 15:06:31;;;;;;;4.50;0.80;;;;;;;;;;5282380;28;20419;-75
2023/05/02 15:09:03;;;;;;;3.33;0.60;;;;;;;;;;5282920;28;20287;-75
2023/05/02 15:11:34;;;;;;;3.30;0.75;;;;;;;;;;5282881;28;20090;-75